Terminal Aerodrome Forecast
Issued by NWS Charleston, WV

Current Version | Previous Version | Graphics & Text | Print | Product List | Glossary On
Versions: 1 2 3 4 5 6 7 8 9 10 11 12 13 14 15 16 17 18 19 20 21 22 23
732
FTUS41 KRLX 290909 AAA
TAFBKW
TAF AMD
KBKW 290909Z 2909/3006 VRB03KT 6SM BR BKN025
     FM291500 18006KT P6SM BKN030
     FM291800 VRB03KT P6SM SHRA VCTS OVC035CB
     FM300100 11005KT 5SM SHRA BKN020=

USA.gov is the U.S. government's official web portal to all federal, state and local government web resources and services.